sensor_id;sensor_type;location;lat;lon;timestamp;P1;durP1;ratioP1;P2;durP2;ratioP2
69779;SDS011;57052;55.602;38.096;2023-05-15T00:00:00;12.80;;;6.78;;
69779;SDS011;57052;55.602;38.096;2023-05-15T00:02:31;16.17;;;7.05;;
69779;SDS011;57052;55.602;38.096;2023-05-15T00:04:59;12.27;;;6.75;;
69779;SDS011;57052;55.602;38.096;2023-05-15T00:07:24;16.08;;;7.10;;
69779;SDS011;57052;55.602;38.096;2023-05-15T00:09:50;14.45;;;6.95;;
69779;SDS011;57052;55.602;38.096;2023-05-15T00:12:16;11.48;;;6.50;;
69779;SDS011;57052;55.602;38.096;2023-05-15T00:14:43;13.32;;;7.35;;
69779;SDS011;57052;55.602;38.096;2023-05-15T00:17:08;15.02;;;7.82;;
69779;SDS011;57052;55.602;38.096;2023-05-15T00:19:34;13.48;;;7.60;;
69779;SDS011;57052;55.602;38.096;2023-05-15T00:22:00;17.85;;;8.40;;
69779;SDS011;57052;55.602;38.096;2023-05-15T00:24:26;17.55;;;8.18;;
69779;SDS011;57052;55.602;38.096;2023-05-15T00:26:51;16.83;;;8.82;;
69779;SDS011;57052;55.602;38.096;2023-05-15T00:29:17;19.63;;;9.07;;
69779;SDS011;57052;55.602;38.096;2023-05-15T00:31:42;18.88;;;8.80;;
69779;SDS011;57052;55.602;38.096;2023-05-15T00:34:08;18.42;;;9.35;;
69779;SDS011;57052;55.602;38.096;2023-05-15T00:36:34;17.08;;;9.55;;
69779;SDS011;57052;55.602;38.096;2023-05-15T00:39:00;16.63;;;9.82;;
69779;SDS011;57052;55.602;38.096;2023-05-15T00:41:26;20.27;;;9.95;;
69779;SDS011;57052;55.602;38.096;2023-05-15T00:43:53;20.45;;;10.40;;
69779;SDS011;57052;55.602;38.096;2023-05-15T00:46:20;21.88;;;10.98;;
69779;SDS011;57052;55.602;38.096;2023-05-15T00:48:46;21.33;;;10.40;;
69779;SDS011;57052;55.602;38.096;2023-05-15T00:51:14;21.25;;;10.30;;
69779;SDS011;57052;55.602;38.096;2023-05-15T00:53:41;21.40;;;9.93;;
69779;SDS011;57052;55.602;38.096;2023-05-15T00:56:07;22.88;;;10.23;;
69779;SDS011;57052;55.602;38.096;2023-05-15T00:58:33;18.50;;;10.65;;
69779;SDS011;57052;55.602;38.096;2023-05-15T01:01:02;19.30;;;10.80;;
69779;SDS011;57052;55.602;38.096;2023-05-15T01:03:27;25.00;;;10.43;;
69779;SDS011;57052;55.602;38.096;2023-05-15T01:05:54;20.13;;;10.40;;
69779;SDS011;57052;55.602;38.096;2023-05-15T01:08:26;22.92;;;10.68;;
69779;SDS011;57052;55.602;38.096;2023-05-15T01:11:06;19.85;;;10.30;;
69779;SDS011;57052;55.602;38.096;2023-05-15T01:13:33;19.98;;;10.20;;
69779;SDS011;57052;55.602;38.096;2023-05-15T01:15:59;19.17;;;10.27;;
69779;SDS011;57052;55.602;38.096;2023-05-15T01:18:24;19.90;;;10.57;;
69779;SDS011;57052;55.602;38.096;2023-05-15T01:26:42;19.13;;;10.38;;
69779;SDS011;57052;55.602;38.096;2023-05-15T01:35:09;23.38;;;11.25;;
69779;SDS011;57052;55.602;38.096;2023-05-15T01:37:41;21.98;;;10.25;;
69779;SDS011;57052;55.602;38.096;2023-05-15T01:40:09;19.88;;;9.80;;
69779;SDS011;57052;55.602;38.096;2023-05-15T01:42:38;19.08;;;10.05;;
69779;SDS011;57052;55.602;38.096;2023-05-15T01:45:09;17.50;;;8.95;;
69779;SDS011;57052;55.602;38.096;2023-05-15T01:47:45;17.77;;;9.43;;
69779;SDS011;57052;55.602;38.096;2023-05-15T01:50:13;19.67;;;9.75;;
69779;SDS011;57052;55.602;38.096;2023-05-15T01:52:46;19.15;;;10.15;;
69779;SDS011;57052;55.602;38.096;2023-05-15T01:55:14;19.35;;;9.95;;
69779;SDS011;57052;55.602;38.096;2023-05-15T01:57:41;19.95;;;9.25;;
69779;SDS011;57052;55.602;38.096;2023-05-15T02:00:09;20.02;;;9.80;;
69779;SDS011;57052;55.602;38.096;2023-05-15T02:02:36;19.13;;;9.68;;
69779;SDS011;57052;55.602;38.096;2023-05-15T02:05:02;22.95;;;11.13;;
69779;SDS011;57052;55.602;38.096;2023-05-15T02:07:30;20.58;;;10.80;;
69779;SDS011;57052;55.602;38.096;2023-05-15T02:09:56;22.55;;;11.00;;
69779;SDS011;57052;55.602;38.096;2023-05-15T02:12:24;20.00;;;10.70;;
69779;SDS011;57052;55.602;38.096;2023-05-15T02:14:51;19.73;;;10.73;;
69779;SDS011;57052;55.602;38.096;2023-05-15T02:17:19;20.90;;;10.73;;
69779;SDS011;57052;55.602;38.096;2023-05-15T02:19:47;21.95;;;11.10;;
69779;SDS011;57052;55.602;38.096;2023-05-15T02:22:12;21.25;;;11.32;;
69779;SDS011;57052;55.602;38.096;2023-05-15T02:24:38;22.48;;;11.23;;
69779;SDS011;57052;55.602;38.096;2023-05-15T02:27:08;23.52;;;10.77;;
69779;SDS011;57052;55.602;38.096;2023-05-15T02:35:36;16.48;;;10.20;;
69779;SDS011;57052;55.602;38.096;2023-05-15T02:38:15;20.57;;;11.37;;
69779;SDS011;57052;55.602;38.096;2023-05-15T02:40:43;21.83;;;11.20;;
69779;SDS011;57052;55.602;38.096;2023-05-15T02:43:12;22.60;;;11.50;;
69779;SDS011;57052;55.602;38.096;2023-05-15T02:45:39;19.95;;;10.90;;
69779;SDS011;57052;55.602;38.096;2023-05-15T02:48:06;21.20;;;10.65;;
69779;SDS011;57052;55.602;38.096;2023-05-15T02:50:33;17.77;;;10.25;;
69779;SDS011;57052;55.602;38.096;2023-05-15T02:53:02;24.23;;;10.38;;
69779;SDS011;57052;55.602;38.096;2023-05-15T02:55:28;20.27;;;10.23;;
69779;SDS011;57052;55.602;38.096;2023-05-15T02:57:55;19.70;;;10.48;;
69779;SDS011;57052;55.602;38.096;2023-05-15T03:00:22;19.13;;;10.02;;
69779;SDS011;57052;55.602;38.096;2023-05-15T03:02:47;16.95;;;9.80;;
69779;SDS011;57052;55.602;38.096;2023-05-15T03:05:13;18.75;;;9.85;;
69779;SDS011;57052;55.602;38.096;2023-05-15T03:07:39;18.10;;;10.10;;
69779;SDS011;57052;55.602;38.096;2023-05-15T03:10:05;19.08;;;9.68;;
69779;SDS011;57052;55.602;38.096;2023-05-15T03:12:32;17.63;;;10.18;;
69779;SDS011;57052;55.602;38.096;2023-05-15T03:14:58;16.50;;;9.60;;
69779;SDS011;57052;55.602;38.096;2023-05-15T03:17:23;15.93;;;9.13;;
69779;SDS011;57052;55.602;38.096;2023-05-15T03:19:49;18.42;;;8.90;;
69779;SDS011;57052;55.602;38.096;2023-05-15T03:22:15;19.67;;;9.40;;
69779;SDS011;57052;55.602;38.096;2023-05-15T03:24:40;19.23;;;8.70;;
69779;SDS011;57052;55.602;38.096;2023-05-15T03:27:06;17.38;;;9.45;;
69779;SDS011;57052;55.602;38.096;2023-05-15T03:29:32;17.80;;;9.48;;
69779;SDS011;57052;55.602;38.096;2023-05-15T03:31:57;20.10;;;9.13;;
69779;SDS011;57052;55.602;38.096;2023-05-15T03:34:23;17.15;;;9.57;;
69779;SDS011;57052;55.602;38.096;2023-05-15T03:36:48;21.30;;;9.60;;
69779;SDS011;57052;55.602;38.096;2023-05-15T03:39:14;17.10;;;9.13;;
69779;SDS011;57052;55.602;38.096;2023-05-15T03:41:40;17.42;;;9.10;;
69779;SDS011;57052;55.602;38.096;2023-05-15T03:44:05;15.27;;;8.00;;
69779;SDS011;57052;55.602;38.096;2023-05-15T03:46:31;18.92;;;8.30;;
69779;SDS011;57052;55.602;38.096;2023-05-15T03:48:57;20.40;;;7.95;;
69779;SDS011;57052;55.602;38.096;2023-05-15T03:51:22;16.45;;;7.28;;
69779;SDS011;57052;55.602;38.096;2023-05-15T03:53:48;17.23;;;7.15;;
69779;SDS011;57052;55.602;38.096;2023-05-15T03:56:14;16.85;;;7.63;;
69779;SDS011;57052;55.602;38.096;2023-05-15T03:58:40;18.25;;;8.32;;
69779;SDS011;57052;55.602;38.096;2023-05-15T04:01:06;15.50;;;6.78;;
69779;SDS011;57052;55.602;38.096;2023-05-15T04:03:32;12.93;;;6.93;;
69779;SDS011;57052;55.602;38.096;2023-05-15T04:05:58;13.75;;;7.10;;
69779;SDS011;57052;55.602;38.096;2023-05-15T04:08:23;12.63;;;6.78;;
69779;SDS011;57052;55.602;38.096;2023-05-15T04:10:49;15.38;;;6.22;;
69779;SDS011;57052;55.602;38.096;2023-05-15T04:13:15;15.20;;;6.85;;
69779;SDS011;57052;55.602;38.096;2023-05-15T04:15:41;14.25;;;6.55;;
69779;SDS011;57052;55.602;38.096;2023-05-15T04:18:07;12.13;;;5.93;;
69779;SDS011;57052;55.602;38.096;2023-05-15T04:20:33;14.57;;;7.07;;
69779;SDS011;57052;55.602;38.096;2023-05-15T04:22:58;12.38;;;5.60;;
69779;SDS011;57052;55.602;38.096;2023-05-15T04:25:24;12.95;;;5.53;;
69779;SDS011;57052;55.602;38.096;2023-05-15T04:27:50;13.80;;;5.45;;
69779;SDS011;57052;55.602;38.096;2023-05-15T04:30:16;9.85;;;5.15;;
69779;SDS011;57052;55.602;38.096;2023-05-15T04:32:42;11.48;;;5.55;;
69779;SDS011;57052;55.602;38.096;2023-05-15T04:35:08;10.07;;;4.65;;
69779;SDS011;57052;55.602;38.096;2023-05-15T04:37:36;9.68;;;4.07;;
69779;SDS011;57052;55.602;38.096;2023-05-15T04:40:02;8.43;;;4.00;;
69779;SDS011;57052;55.602;38.096;2023-05-15T04:42:29;10.00;;;4.10;;
69779;SDS011;57052;55.602;38.096;2023-05-15T04:44:55;8.98;;;3.63;;
69779;SDS011;57052;55.602;38.096;2023-05-15T04:47:21;9.23;;;4.07;;
69779;SDS011;57052;55.602;38.096;2023-05-15T04:49:47;7.95;;;3.63;;
69779;SDS011;57052;55.602;38.096;2023-05-15T04:52:14;9.82;;;3.38;;
69779;SDS011;57052;55.602;38.096;2023-05-15T04:54:40;9.75;;;3.70;;
69779;SDS011;57052;55.602;38.096;2023-05-15T04:57:06;7.78;;;3.40;;
69779;SDS011;57052;55.602;38.096;2023-05-15T04:59:32;7.18;;;3.22;;
69779;SDS011;57052;55.602;38.096;2023-05-15T05:01:58;6.13;;;3.28;;
69779;SDS011;57052;55.602;38.096;2023-05-15T05:04:24;6.30;;;3.00;;
69779;SDS011;57052;55.602;38.096;2023-05-15T05:06:50;5.40;;;2.83;;
69779;SDS011;57052;55.602;38.096;2023-05-15T05:09:17;5.32;;;2.75;;
69779;SDS011;57052;55.602;38.096;2023-05-15T05:11:44;7.22;;;2.65;;
69779;SDS011;57052;55.602;38.096;2023-05-15T05:14:14;6.40;;;2.80;;
69779;SDS011;57052;55.602;38.096;2023-05-15T05:16:40;5.90;;;2.47;;
69779;SDS011;57052;55.602;38.096;2023-05-15T05:19:08;5.82;;;2.38;;
69779;SDS011;57052;55.602;38.096;2023-05-15T05:21:34;5.57;;;2.80;;
69779;SDS011;57052;55.602;38.096;2023-05-15T05:24:00;5.25;;;2.30;;
69779;SDS011;57052;55.602;38.096;2023-05-15T05:26:25;3.83;;;2.05;;
69779;SDS011;57052;55.602;38.096;2023-05-15T05:28:51;5.55;;;2.58;;
69779;SDS011;57052;55.602;38.096;2023-05-15T05:31:17;6.30;;;2.03;;
69779;SDS011;57052;55.602;38.096;2023-05-15T05:33:45;3.63;;;2.00;;
69779;SDS011;57052;55.602;38.096;2023-05-15T05:36:11;9.43;;;2.00;;
69779;SDS011;57052;55.602;38.096;2023-05-15T05:38:36;4.18;;;2.10;;
69779;SDS011;57052;55.602;38.096;2023-05-15T05:41:02;5.47;;;2.17;;
69779;SDS011;57052;55.602;38.096;2023-05-15T05:43:30;3.90;;;2.10;;
69779;SDS011;57052;55.602;38.096;2023-05-15T05:45:56;3.67;;;1.83;;
69779;SDS011;57052;55.602;38.096;2023-05-15T05:48:21;4.70;;;1.90;;
69779;SDS011;57052;55.602;38.096;2023-05-15T05:50:47;3.40;;;1.75;;
69779;SDS011;57052;55.602;38.096;2023-05-15T05:53:13;3.97;;;1.55;;
69779;SDS011;57052;55.602;38.096;2023-05-15T05:55:38;2.95;;;1.58;;
69779;SDS011;57052;55.602;38.096;2023-05-15T05:58:04;3.03;;;1.52;;
69779;SDS011;57052;55.602;38.096;2023-05-15T06:00:30;2.67;;;1.30;;
69779;SDS011;57052;55.602;38.096;2023-05-15T06:02:56;3.95;;;1.38;;
69779;SDS011;57052;55.602;38.096;2023-05-15T06:05:24;2.22;;;1.20;;
69779;SDS011;57052;55.602;38.096;2023-05-15T06:07:51;2.63;;;1.15;;
69779;SDS011;57052;55.602;38.096;2023-05-15T06:10:17;2.30;;;1.10;;
69779;SDS011;57052;55.602;38.096;2023-05-15T06:12:43;5.25;;;1.20;;
69779;SDS011;57052;55.602;38.096;2023-05-15T06:15:09;4.07;;;1.23;;
69779;SDS011;57052;55.602;38.096;2023-05-15T06:17:36;5.00;;;1.42;;
69779;SDS011;57052;55.602;38.096;2023-05-15T06:20:02;2.63;;;1.20;;
69779;SDS011;57052;55.602;38.096;2023-05-15T06:22:33;5.10;;;1.13;;
69779;SDS011;57052;55.602;38.096;2023-05-15T06:25:00;2.35;;;1.20;;
69779;SDS011;57052;55.602;38.096;2023-05-15T06:27:34;1.42;;;0.90;;
69779;SDS011;57052;55.602;38.096;2023-05-15T06:30:00;3.63;;;1.30;;
69779;SDS011;57052;55.602;38.096;2023-05-15T06:32:28;1.98;;;1.10;;
69779;SDS011;57052;55.602;38.096;2023-05-15T06:34:55;1.63;;;0.90;;
69779;SDS011;57052;55.602;38.096;2023-05-15T06:37:21;1.90;;;1.00;;
69779;SDS011;57052;55.602;38.096;2023-05-15T06:39:46;3.30;;;1.00;;
69779;SDS011;57052;55.602;38.096;2023-05-15T06:42:12;6.35;;;1.52;;
69779;SDS011;57052;55.602;38.096;2023-05-15T06:44:39;3.85;;;1.80;;
69779;SDS011;57052;55.602;38.096;2023-05-15T06:47:05;3.10;;;1.70;;
69779;SDS011;57052;55.602;38.096;2023-05-15T06:49:31;2.55;;;1.00;;
69779;SDS011;57052;55.602;38.096;2023-05-15T06:51:56;2.05;;;1.00;;
69779;SDS011;57052;55.602;38.096;2023-05-15T06:54:22;3.65;;;1.10;;
69779;SDS011;57052;55.602;38.096;2023-05-15T06:56:47;3.28;;;1.10;;
69779;SDS011;57052;55.602;38.096;2023-05-15T06:59:13;1.52;;;0.90;;
69779;SDS011;57052;55.602;38.096;2023-05-15T07:01:39;2.50;;;0.90;;
69779;SDS011;57052;55.602;38.096;2023-05-15T07:04:05;3.17;;;1.40;;
69779;SDS011;57052;55.602;38.096;2023-05-15T07:06:31;1.60;;;0.90;;
69779;SDS011;57052;55.602;38.096;2023-05-15T07:08:57;3.35;;;0.88;;
69779;SDS011;57052;55.602;38.096;2023-05-15T07:11:23;1.33;;;1.00;;
69779;SDS011;57052;55.602;38.096;2023-05-15T07:13:50;5.30;;;1.80;;
69779;SDS011;57052;55.602;38.096;2023-05-15T07:16:16;2.63;;;1.20;;
69779;SDS011;57052;55.602;38.096;2023-05-15T07:18:42;2.80;;;1.40;;
69779;SDS011;57052;55.602;38.096;2023-05-15T07:21:08;1.77;;;1.08;;
69779;SDS011;57052;55.602;38.096;2023-05-15T07:23:33;4.68;;;1.20;;
69779;SDS011;57052;55.602;38.096;2023-05-15T07:25:59;1.70;;;0.80;;
69779;SDS011;57052;55.602;38.096;2023-05-15T07:28:25;1.02;;;0.90;;
69779;SDS011;57052;55.602;38.096;2023-05-15T07:30:51;2.42;;;1.10;;
69779;SDS011;57052;55.602;38.096;2023-05-15T07:33:17;5.00;;;1.75;;
69779;SDS011;57052;55.602;38.096;2023-05-15T07:35:42;1.60;;;0.90;;
69779;SDS011;57052;55.602;38.096;2023-05-15T07:38:08;2.10;;;0.90;;
69779;SDS011;57052;55.602;38.096;2023-05-15T07:40:34;2.80;;;0.93;;
69779;SDS011;57052;55.602;38.096;2023-05-15T07:43:00;2.13;;;1.00;;
69779;SDS011;57052;55.602;38.096;2023-05-15T07:45:27;2.40;;;0.80;;
69779;SDS011;57052;55.602;38.096;2023-05-15T07:47:52;4.60;;;1.52;;
69779;SDS011;57052;55.602;38.096;2023-05-15T07:50:19;3.35;;;1.00;;
69779;SDS011;57052;55.602;38.096;2023-05-15T07:52:44;1.50;;;0.90;;
69779;SDS011;57052;55.602;38.096;2023-05-15T07:55:10;1.00;;;0.80;;
69779;SDS011;57052;55.602;38.096;2023-05-15T07:57:36;2.03;;;1.00;;
69779;SDS011;57052;55.602;38.096;2023-05-15T08:00:04;1.75;;;1.10;;
69779;SDS011;57052;55.602;38.096;2023-05-15T08:02:35;2.88;;;0.90;;
69779;SDS011;57052;55.602;38.096;2023-05-15T08:05:01;4.55;;;1.20;;
69779;SDS011;57052;55.602;38.096;2023-05-15T08:07:30;1.83;;;1.08;;
69779;SDS011;57052;55.602;38.096;2023-05-15T08:09:57;1.83;;;1.23;;
69779;SDS011;57052;55.602;38.096;2023-05-15T08:12:24;1.23;;;1.00;;
69779;SDS011;57052;55.602;38.096;2023-05-15T08:14:51;1.40;;;1.00;;
69779;SDS011;57052;55.602;38.096;2023-05-15T08:17:20;2.67;;;1.30;;
69779;SDS011;57052;55.602;38.096;2023-05-15T08:19:46;1.77;;;1.20;;
69779;SDS011;57052;55.602;38.096;2023-05-15T08:22:13;2.40;;;1.20;;
69779;SDS011;57052;55.602;38.096;2023-05-15T08:24:39;2.03;;;1.33;;
69779;SDS011;57052;55.602;38.096;2023-05-15T08:27:05;1.70;;;1.00;;
69779;SDS011;57052;55.602;38.096;2023-05-15T08:29:31;1.73;;;1.00;;
69779;SDS011;57052;55.602;38.096;2023-05-15T08:31:57;2.60;;;1.25;;
69779;SDS011;57052;55.602;38.096;2023-05-15T08:34:23;4.20;;;1.20;;
69779;SDS011;57052;55.602;38.096;2023-05-15T08:36:50;1.05;;;0.80;;
69779;SDS011;57052;55.602;38.096;2023-05-15T08:39:16;2.35;;;0.90;;
69779;SDS011;57052;55.602;38.096;2023-05-15T08:44:19;2.10;;;1.00;;
69779;SDS011;57052;55.602;38.096;2023-05-15T08:46:46;1.45;;;1.00;;
69779;SDS011;57052;55.602;38.096;2023-05-15T08:49:13;3.13;;;1.20;;
69779;SDS011;57052;55.602;38.096;2023-05-15T08:51:59;6.00;;;1.45;;
69779;SDS011;57052;55.602;38.096;2023-05-15T08:54:25;2.13;;;0.98;;
69779;SDS011;57052;55.602;38.096;2023-05-15T08:56:51;1.50;;;0.90;;
69779;SDS011;57052;55.602;38.096;2023-05-15T08:59:19;1.38;;;0.90;;
69779;SDS011;57052;55.602;38.096;2023-05-15T09:01:45;1.55;;;1.00;;
69779;SDS011;57052;55.602;38.096;2023-05-15T09:04:11;1.98;;;1.02;;
69779;SDS011;57052;55.602;38.096;2023-05-15T09:06:37;0.80;;;0.80;;
69779;SDS011;57052;55.602;38.096;2023-05-15T09:09:05;1.30;;;0.77;;
69779;SDS011;57052;55.602;38.096;2023-05-15T09:11:31;1.80;;;1.00;;
69779;SDS011;57052;55.602;38.096;2023-05-15T09:13:57;1.85;;;0.90;;
69779;SDS011;57052;55.602;38.096;2023-05-15T09:16:23;1.10;;;0.80;;
69779;SDS011;57052;55.602;38.096;2023-05-15T09:18:49;1.23;;;0.95;;
69779;SDS011;57052;55.602;38.096;2023-05-15T09:21:20;0.88;;;0.80;;
69779;SDS011;57052;55.602;38.096;2023-05-15T09:23:48;0.98;;;0.80;;
69779;SDS011;57052;55.602;38.096;2023-05-15T09:26:13;2.60;;;0.90;;
69779;SDS011;57052;55.602;38.096;2023-05-15T09:28:39;1.10;;;0.90;;
69779;SDS011;57052;55.602;38.096;2023-05-15T09:31:05;3.83;;;1.00;;
69779;SDS011;57052;55.602;38.096;2023-05-15T09:33:32;2.70;;;1.00;;
69779;SDS011;57052;55.602;38.096;2023-05-15T09:35:59;3.38;;;1.02;;
69779;SDS011;57052;55.602;38.096;2023-05-15T09:38:26;1.10;;;1.00;;
69779;SDS011;57052;55.602;38.096;2023-05-15T09:41:10;1.25;;;0.88;;
69779;SDS011;57052;55.602;38.096;2023-05-15T09:43:36;1.90;;;0.93;;
69779;SDS011;57052;55.602;38.096;2023-05-15T09:46:03;2.25;;;1.00;;
69779;SDS011;57052;55.602;38.096;2023-05-15T09:48:30;2.17;;;1.10;;
69779;SDS011;57052;55.602;38.096;2023-05-15T09:50:57;1.52;;;0.90;;
69779;SDS011;57052;55.602;38.096;2023-05-15T09:53:23;1.00;;;0.70;;
69779;SDS011;57052;55.602;38.096;2023-05-15T09:55:49;1.45;;;1.00;;
69779;SDS011;57052;55.602;38.096;2023-05-15T09:58:15;2.30;;;0.80;;
69779;SDS011;57052;55.602;38.096;2023-05-15T10:00:42;1.70;;;1.00;;
69779;SDS011;57052;55.602;38.096;2023-05-15T10:03:09;1.67;;;0.98;;
69779;SDS011;57052;55.602;38.096;2023-05-15T10:05:36;2.55;;;1.00;;
69779;SDS011;57052;55.602;38.096;2023-05-15T10:08:05;1.13;;;0.80;;
69779;SDS011;57052;55.602;38.096;2023-05-15T10:10:31;1.20;;;0.90;;
69779;SDS011;57052;55.602;38.096;2023-05-15T10:12:58;2.92;;;1.00;;
69779;SDS011;57052;55.602;38.096;2023-05-15T10:15:30;3.00;;;0.98;;
69779;SDS011;57052;55.602;38.096;2023-05-15T10:17:56;1.23;;;0.80;;
69779;SDS011;57052;55.602;38.096;2023-05-15T10:20:23;1.52;;;0.80;;
69779;SDS011;57052;55.602;38.096;2023-05-15T10:22:51;0.88;;;0.75;;
69779;SDS011;57052;55.602;38.096;2023-05-15T10:28:10;1.17;;;0.90;;
69779;SDS011;57052;55.602;38.096;2023-05-15T10:30:36;1.60;;;1.00;;
69779;SDS011;57052;55.602;38.096;2023-05-15T10:33:03;1.27;;;0.80;;
69779;SDS011;57052;55.602;38.096;2023-05-15T10:35:30;1.58;;;0.95;;
69779;SDS011;57052;55.602;38.096;2023-05-15T10:37:56;2.25;;;1.00;;
69779;SDS011;57052;55.602;38.096;2023-05-15T10:40:22;2.28;;;0.90;;
69779;SDS011;57052;55.602;38.096;2023-05-15T10:42:48;1.50;;;0.80;;
69779;SDS011;57052;55.602;38.096;2023-05-15T10:45:14;1.67;;;0.70;;
69779;SDS011;57052;55.602;38.096;2023-05-15T10:47:41;0.90;;;0.80;;
69779;SDS011;57052;55.602;38.096;2023-05-15T10:50:08;1.83;;;0.75;;
69779;SDS011;57052;55.602;38.096;2023-05-15T10:52:36;2.90;;;0.80;;
69779;SDS011;57052;55.602;38.096;2023-05-15T10:55:07;2.55;;;1.30;;
69779;SDS011;57052;55.602;38.096;2023-05-15T10:57:34;2.15;;;1.08;;
69779;SDS011;57052;55.602;38.096;2023-05-15T11:00:00;2.10;;;0.88;;
69779;SDS011;57052;55.602;38.096;2023-05-15T11:02:28;1.98;;;0.95;;
69779;SDS011;57052;55.602;38.096;2023-05-15T11:04:56;2.05;;;0.75;;
69779;SDS011;57052;55.602;38.096;2023-05-15T11:07:23;2.28;;;0.90;;
69779;SDS011;57052;55.602;38.096;2023-05-15T11:09:50;2.65;;;1.02;;
69779;SDS011;57052;55.602;38.096;2023-05-15T11:12:17;4.75;;;0.98;;
69779;SDS011;57052;55.602;38.096;2023-05-15T11:17:18;3.28;;;0.95;;
69779;SDS011;57052;55.602;38.096;2023-05-15T11:24:47;0.98;;;0.80;;
69779;SDS011;57052;55.602;38.096;2023-05-15T11:27:20;1.80;;;1.02;;
69779;SDS011;57052;55.602;38.096;2023-05-15T11:35:18;2.15;;;0.95;;
69779;SDS011;57052;55.602;38.096;2023-05-15T11:37:50;1.95;;;0.82;;
69779;SDS011;57052;55.602;38.096;2023-05-15T11:40:27;1.30;;;0.90;;
69779;SDS011;57052;55.602;38.096;2023-05-15T11:43:01;2.30;;;0.80;;
69779;SDS011;57052;55.602;38.096;2023-05-15T11:45:31;1.73;;;0.90;;
69779;SDS011;57052;55.602;38.096;2023-05-15T11:48:02;3.40;;;0.98;;
69779;SDS011;57052;55.602;38.096;2023-05-15T11:50:31;2.78;;;0.90;;
69779;SDS011;57052;55.602;38.096;2023-05-15T11:53:00;1.50;;;0.65;;
69779;SDS011;57052;55.602;38.096;2023-05-15T11:55:28;3.75;;;0.90;;
69779;SDS011;57052;55.602;38.096;2023-05-15T11:57:56;2.92;;;1.10;;
69779;SDS011;57052;55.602;38.096;2023-05-15T12:00:21;1.00;;;0.90;;
69779;SDS011;57052;55.602;38.096;2023-05-15T12:02:48;1.40;;;1.00;;
69779;SDS011;57052;55.602;38.096;2023-05-15T12:05:13;1.33;;;0.90;;
69779;SDS011;57052;55.602;38.096;2023-05-15T12:07:43;1.65;;;0.93;;
69779;SDS011;57052;55.602;38.096;2023-05-15T12:10:09;2.08;;;0.98;;
69779;SDS011;57052;55.602;38.096;2023-05-15T12:12:43;1.20;;;0.90;;
69779;SDS011;57052;55.602;38.096;2023-05-15T12:15:13;1.58;;;0.90;;
69779;SDS011;57052;55.602;38.096;2023-05-15T12:17:43;2.65;;;0.95;;
69779;SDS011;57052;55.602;38.096;2023-05-15T12:20:10;1.40;;;0.82;;
69779;SDS011;57052;55.602;38.096;2023-05-15T12:22:43;2.45;;;0.90;;
69779;SDS011;57052;55.602;38.096;2023-05-15T12:25:09;2.83;;;1.25;;
69779;SDS011;57052;55.602;38.096;2023-05-15T12:27:37;2.00;;;0.85;;
69779;SDS011;57052;55.602;38.096;2023-05-15T12:30:04;1.10;;;0.93;;
69779;SDS011;57052;55.602;38.096;2023-05-15T12:32:34;3.13;;;0.70;;
69779;SDS011;57052;55.602;38.096;2023-05-15T12:35:00;1.75;;;0.80;;
69779;SDS011;57052;55.602;38.096;2023-05-15T12:37:31;2.10;;;0.90;;
69779;SDS011;57052;55.602;38.096;2023-05-15T12:40:01;1.90;;;0.85;;
69779;SDS011;57052;55.602;38.096;2023-05-15T12:42:44;2.60;;;0.80;;
69779;SDS011;57052;55.602;38.096;2023-05-15T12:45:13;2.40;;;0.80;;
69779;SDS011;57052;55.602;38.096;2023-05-15T12:47:40;1.23;;;0.90;;
69779;SDS011;57052;55.602;38.096;2023-05-15T12:50:11;2.15;;;0.93;;
69779;SDS011;57052;55.602;38.096;2023-05-15T12:55:24;2.85;;;0.90;;
69779;SDS011;57052;55.602;38.096;2023-05-15T12:57:58;1.48;;;0.90;;
69779;SDS011;57052;55.602;38.096;2023-05-15T13:00:28;1.13;;;0.82;;
69779;SDS011;57052;55.602;38.096;2023-05-15T13:02:56;3.42;;;1.20;;
69779;SDS011;57052;55.602;38.096;2023-05-15T13:05:22;0.95;;;0.80;;
69779;SDS011;57052;55.602;38.096;2023-05-15T13:07:49;1.92;;;1.00;;
69779;SDS011;57052;55.602;38.096;2023-05-15T13:10:20;3.65;;;0.98;;
69779;SDS011;57052;55.602;38.096;2023-05-15T13:12:47;2.20;;;1.00;;
69779;SDS011;57052;55.602;38.096;2023-05-15T13:15:23;1.63;;;0.90;;
69779;SDS011;57052;55.602;38.096;2023-05-15T13:17:52;3.00;;;1.08;;
69779;SDS011;57052;55.602;38.096;2023-05-15T13:20:33;4.53;;;0.90;;
69779;SDS011;57052;55.602;38.096;2023-05-15T13:23:02;0.80;;;0.80;;
69779;SDS011;57052;55.602;38.096;2023-05-15T13:25:28;4.63;;;1.20;;
69779;SDS011;57052;55.602;38.096;2023-05-15T13:27:56;2.95;;;1.00;;
69779;SDS011;57052;55.602;38.096;2023-05-15T13:30:23;2.15;;;1.00;;
69779;SDS011;57052;55.602;38.096;2023-05-15T13:32:49;1.80;;;1.00;;
69779;SDS011;57052;55.602;38.096;2023-05-15T13:35:16;1.15;;;0.95;;
69779;SDS011;57052;55.602;38.096;2023-05-15T13:37:41;5.78;;;1.10;;
69779;SDS011;57052;55.602;38.096;2023-05-15T13:40:08;2.92;;;1.08;;
69779;SDS011;57052;55.602;38.096;2023-05-15T13:42:35;2.22;;;0.90;;
69779;SDS011;57052;55.602;38.096;2023-05-15T13:45:05;2.15;;;1.08;;
69779;SDS011;57052;55.602;38.096;2023-05-15T13:47:36;2.45;;;1.08;;
69779;SDS011;57052;55.602;38.096;2023-05-15T13:50:05;3.33;;;0.90;;
69779;SDS011;57052;55.602;38.096;2023-05-15T13:52:32;1.15;;;0.85;;
69779;SDS011;57052;55.602;38.096;2023-05-15T13:54:57;2.33;;;0.88;;
69779;SDS011;57052;55.602;38.096;2023-05-15T13:57:23;3.00;;;0.85;;
69779;SDS011;57052;55.602;38.096;2023-05-15T13:59:48;0.80;;;0.80;;
69779;SDS011;57052;55.602;38.096;2023-05-15T14:02:14;3.92;;;1.08;;
69779;SDS011;57052;55.602;38.096;2023-05-15T14:04:40;2.47;;;0.95;;
69779;SDS011;57052;55.602;38.096;2023-05-15T14:07:06;4.18;;;1.00;;
69779;SDS011;57052;55.602;38.096;2023-05-15T14:09:31;3.45;;;1.10;;
69779;SDS011;57052;55.602;38.096;2023-05-15T14:11:57;3.25;;;1.20;;
69779;SDS011;57052;55.602;38.096;2023-05-15T14:14:23;2.13;;;1.17;;
69779;SDS011;57052;55.602;38.096;2023-05-15T14:16:48;1.73;;;1.00;;
69779;SDS011;57052;55.602;38.096;2023-05-15T14:19:14;2.08;;;0.90;;
69779;SDS011;57052;55.602;38.096;2023-05-15T14:21:40;3.03;;;0.90;;
69779;SDS011;57052;55.602;38.096;2023-05-15T14:24:05;1.88;;;1.10;;
69779;SDS011;57052;55.602;38.096;2023-05-15T14:26:32;2.25;;;1.17;;
69779;SDS011;57052;55.602;38.096;2023-05-15T14:28:58;3.35;;;1.23;;
69779;SDS011;57052;55.602;38.096;2023-05-15T14:31:23;5.05;;;1.50;;
69779;SDS011;57052;55.602;38.096;2023-05-15T14:33:50;2.70;;;1.20;;
69779;SDS011;57052;55.602;38.096;2023-05-15T14:36:16;3.00;;;1.42;;
69779;SDS011;57052;55.602;38.096;2023-05-15T14:38:42;2.42;;;1.10;;
69779;SDS011;57052;55.602;38.096;2023-05-15T14:41:12;2.33;;;1.20;;
69779;SDS011;57052;55.602;38.096;2023-05-15T14:43:38;1.45;;;0.90;;
69779;SDS011;57052;55.602;38.096;2023-05-15T14:46:04;2.35;;;1.10;;
69779;SDS011;57052;55.602;38.096;2023-05-15T14:48:30;2.33;;;1.10;;
69779;SDS011;57052;55.602;38.096;2023-05-15T14:50:58;4.93;;;1.50;;
69779;SDS011;57052;55.602;38.096;2023-05-15T14:53:24;3.22;;;1.20;;
69779;SDS011;57052;55.602;38.096;2023-05-15T14:55:50;6.50;;;1.40;;
69779;SDS011;57052;55.602;38.096;2023-05-15T14:58:16;2.75;;;1.58;;
69779;SDS011;57052;55.602;38.096;2023-05-15T15:00:42;2.63;;;1.20;;
69779;SDS011;57052;55.602;38.096;2023-05-15T15:03:09;3.45;;;1.00;;
69779;SDS011;57052;55.602;38.096;2023-05-15T15:05:34;1.90;;;1.00;;